Time;durP1;ratioP1;P1;durP2;ratioP2;P2;SDS_P1;SDS_P2;PMS_P1;PMS_P2;Temp;Humidity;BMP_temperature;BMP_pressure;BME280_temperature;BME280_humidity;BME280_pressure;Samples;Min_cycle;Max_cycle;Signal;HPM_P1;HPM_P2
2021/04/24 00:01:50;;;;;;;14.73;7.82;;;8.40;68.80;;;;;;5042683;28;20036;-60
2021/04/24 00:04:17;;;;;;;16.13;7.47;;;8.40;69.20;;;;;;5042016;28;20052;-58
2021/04/24 00:06:42;;;;;;;20.05;7.65;;;8.50;68.50;;;;;;5029241;28;20056;-60
2021/04/24 00:09:08;;;;;;;17.77;7.65;;;8.50;68.90;;;;;;5031930;28;20038;-58
2021/04/24 00:11:35;;;;;;;16.33;6.95;;;8.40;68.80;;;;;;5014562;28;20029;-59
2021/04/24 00:14:01;;;;;;;19.52;8.50;;;8.30;69.00;;;;;;5013583;28;20054;-57
2021/04/24 00:16:26;;;;;;;14.45;7.45;;;8.30;69.10;;;;;;5029039;28;20075;-59
2021/04/24 00:18:52;;;;;;;15.43;7.25;;;8.30;68.90;;;;;;5038669;28;20041;-57
2021/04/24 00:21:18;;;;;;;11.63;6.78;;;8.40;68.90;;;;;;5017244;28;20044;-60
2021/04/24 00:23:44;;;;;;;12.95;7.25;;;8.40;69.10;;;;;;5020795;28;20026;-58
2021/04/24 00:26:10;;;;;;;12.15;7.05;;;8.50;68.40;;;;;;5034328;28;20132;-59
2021/04/24 00:28:36;;;;;;;10.90;7.00;;;8.50;68.40;;;;;;5035681;28;20041;-58
2021/04/24 00:31:01;;;;;;;12.85;7.60;;;8.50;68.80;;;;;;5023004;28;20155;-58
2021/04/24 00:33:27;;;;;;;17.25;7.22;;;8.20;69.50;;;;;;5027292;28;20037;-59
2021/04/24 00:35:53;;;;;;;11.20;6.82;;;8.20;70.20;;;;;;5019754;28;20501;-60
2021/04/24 00:38:19;;;;;;;15.38;8.05;;;8.00;70.50;;;;;;5023576;28;20125;-60
2021/04/24 00:40:45;;;;;;;14.77;7.00;;;8.20;70.20;;;;;;5014141;28;20026;-58
2021/04/24 00:43:18;;;;;;;11.68;6.82;;;8.20;69.80;;;;;;5033224;28;20033;-59
2021/04/24 00:45:44;;;;;;;13.85;7.00;;;8.10;69.60;;;;;;5025969;28;20034;-57
2021/04/24 00:48:11;;;;;;;14.68;6.47;;;7.90;70.30;;;;;;5035656;28;20540;-59
2021/04/24 00:50:39;;;;;;;14.18;6.75;;;7.70;71.10;;;;;;5015752;28;20108;-58
2021/04/24 00:53:06;;;;;;;16.08;6.75;;;7.70;70.80;;;;;;5036945;28;20448;-57
2021/04/24 00:55:32;;;;;;;14.02;6.75;;;7.70;70.90;;;;;;5023032;28;20112;-58
2021/04/24 00:57:59;;;;;;;15.80;7.53;;;7.70;70.80;;;;;;5041781;28;20463;-58
2021/04/24 01:00:25;;;;;;;13.43;6.20;;;7.70;70.70;;;;;;5016665;28;20066;-58
2021/04/24 01:02:52;;;;;;;11.77;5.88;;;7.90;70.10;;;;;;5034657;28;20037;-56
2021/04/24 01:05:21;;;;;;;14.00;6.45;;;7.90;70.30;;;;;;5022517;28;20064;-59
2021/04/24 01:07:47;;;;;;;16.55;6.60;;;7.90;69.90;;;;;;5016422;28;20057;-58
2021/04/24 01:10:14;;;;;;;16.02;7.05;;;7.90;70.10;;;;;;5022224;28;20049;-60
2021/04/24 01:12:41;;;;;;;11.15;6.55;;;7.80;71.00;;;;;;5014987;28;20107;-58
2021/04/24 01:15:07;;;;;;;14.25;6.93;;;7.90;70.90;;;;;;5019969;28;20538;-58
2021/04/24 01:17:33;;;;;;;10.52;6.22;;;7.90;71.00;;;;;;5016682;28;20057;-57
2021/04/24 01:19:59;;;;;;;13.80;6.75;;;8.00;70.80;;;;;;5020319;28;20033;-58
2021/04/24 01:22:26;;;;;;;14.10;6.63;;;8.00;70.80;;;;;;5019763;28;20047;-58
2021/04/24 01:24:52;;;;;;;12.50;6.50;;;8.00;70.60;;;;;;5029953;28;20076;-58
2021/04/24 01:27:18;;;;;;;13.13;6.15;;;7.90;70.70;;;;;;5016319;28;20513;-58
2021/04/24 01:29:44;;;;;;;14.18;6.70;;;8.00;70.40;;;;;;5014523;28;20084;-55
2021/04/24 01:32:09;;;;;;;13.70;7.72;;;8.00;70.80;;;;;;5020368;28;20034;-57
2021/04/24 01:34:35;;;;;;;12.07;7.18;;;8.00;70.80;;;;;;5028723;28;20025;-60
2021/04/24 01:37:02;;;;;;;12.35;7.35;;;7.90;70.80;;;;;;5039252;28;20040;-59
2021/04/24 01:39:30;;;;;;;42.20;23.75;;;7.90;70.70;;;;;;5014848;28;20026;-59
2021/04/24 01:41:57;;;;;;;36.40;17.10;;;7.80;71.60;;;;;;5029105;28;20029;-59
2021/04/24 01:44:23;;;;;;;21.33;11.35;;;7.70;71.50;;;;;;5016752;28;20042;-57
2021/04/24 01:46:48;;;;;;;15.70;8.82;;;7.70;71.90;;;;;;5029916;28;20565;-57
2021/04/24 01:49:14;;;;;;;14.38;7.47;;;7.80;72.00;;;;;;5011703;28;20109;-59
2021/04/24 01:51:40;;;;;;;94.47;46.65;;;7.80;71.20;;;;;;5030041;28;20030;-58
2021/04/24 01:54:07;;;;;;;26.02;15.77;;;7.80;71.90;;;;;;5012631;28;20034;-59
2021/04/24 01:56:47;;;;;;;13.23;7.20;;;7.80;71.70;;;;;;5023065;28;20038;-59
2021/04/24 01:59:14;;;;;;;14.98;8.25;;;7.70;71.50;;;;;;5011475;28;20038;-59
2021/04/24 02:01:42;;;;;;;18.40;10.43;;;7.60;71.60;;;;;;5034378;28;20032;-58
2021/04/24 02:04:07;;;;;;;16.73;7.82;;;7.60;71.70;;;;;;5021992;28;20105;-59
2021/04/24 02:06:34;;;;;;;13.20;6.97;;;7.70;71.70;;;;;;5032090;28;20057;-60
2021/04/24 02:08:59;;;;;;;14.75;7.00;;;7.60;71.70;;;;;;5011017;28;20053;-56
2021/04/24 02:11:25;;;;;;;13.50;6.68;;;7.60;72.10;;;;;;5024998;28;20069;-59
2021/04/24 02:13:51;;;;;;;14.30;7.00;;;7.60;72.40;;;;;;5011774;28;20034;-56
2021/04/24 02:16:17;;;;;;;10.93;7.38;;;7.60;72.50;;;;;;5031773;28;20083;-59
2021/04/24 02:18:43;;;;;;;15.68;7.78;;;7.50;72.20;;;;;;5033097;28;20030;-57
2021/04/24 02:21:09;;;;;;;19.35;6.97;;;7.50;72.50;;;;;;5035303;28;20439;-59
2021/04/24 02:23:37;;;;;;;16.42;7.07;;;7.30;73.00;;;;;;5034222;28;20448;-60
2021/04/24 02:26:04;;;;;;;12.48;6.65;;;7.10;73.70;;;;;;5035057;28;20061;-58
2021/04/24 02:28:30;;;;;;;14.20;6.75;;;7.20;73.30;;;;;;5026222;28;20026;-56
2021/04/24 02:30:55;;;;;;;10.85;6.97;;;7.20;73.50;;;;;;5022541;28;20033;-58
2021/04/24 02:33:21;;;;;;;13.98;7.32;;;7.20;74.20;;;;;;5038151;28;20044;-58
2021/04/24 02:35:48;;;;;;;14.15;8.15;;;7.10;73.60;;;;;;5024103;28;20052;-57
2021/04/24 02:38:48;;;;;;;14.00;7.10;;;7.30;73.50;;;;;;5014367;28;20023;-60
2021/04/24 02:41:13;;;;;;;19.02;7.55;;;6.80;74.70;;;;;;5018772;28;20493;-59
2021/04/24 02:43:39;;;;;;;12.88;6.45;;;6.80;74.80;;;;;;5015189;28;20087;-61
2021/04/24 02:46:05;;;;;;;12.50;6.57;;;6.60;75.30;;;;;;5018596;28;20071;-59
2021/04/24 02:48:30;;;;;;;14.18;6.55;;;6.60;75.00;;;;;;5014700;28;20030;-59
2021/04/24 02:51:31;;;;;;;14.63;5.97;;;6.70;74.50;;;;;;5018208;28;20045;-59
2021/04/24 02:53:59;;;;;;;13.30;5.72;;;6.90;73.90;;;;;;5029066;28;20046;-59
2021/04/24 02:56:25;;;;;;;11.25;6.38;;;7.00;73.60;;;;;;5029198;28;20640;-58
2021/04/24 02:58:50;;;;;;;12.38;6.20;;;6.70;75.00;;;;;;5013297;28;20080;-59
2021/04/24 03:01:16;;;;;;;12.35;6.32;;;6.50;76.40;;;;;;5027979;28;20040;-57
2021/04/24 03:03:41;;;;;;;13.90;6.50;;;6.70;74.80;;;;;;5013902;28;20041;-58
2021/04/24 03:06:07;;;;;;;15.70;6.60;;;6.80;74.20;;;;;;5016233;28;20030;-56
2021/04/24 03:08:33;;;;;;;12.13;5.60;;;6.90;73.90;;;;;;5018042;28;20029;-58
2021/04/24 03:10:58;;;;;;;15.25;6.30;;;6.90;73.80;;;;;;5022253;28;20025;-59
2021/04/24 03:13:24;;;;;;;14.65;6.68;;;7.00;73.30;;;;;;5023410;28;20034;-59
2021/04/24 03:15:49;;;;;;;15.23;6.82;;;6.90;73.50;;;;;;5025614;28;20076;-59
2021/04/24 03:18:15;;;;;;;12.15;6.20;;;6.90;73.90;;;;;;5022167;28;20038;-58
2021/04/24 03:20:40;;;;;;;12.40;6.22;;;6.70;74.20;;;;;;5014085;28;20112;-59
2021/04/24 03:23:07;;;;;;;21.08;6.68;;;6.60;76.10;;;;;;5033498;28;20424;-58
2021/04/24 03:25:32;;;;;;;14.02;6.95;;;6.60;75.80;;;;;;5040933;28;20060;-56
2021/04/24 03:27:58;;;;;;;13.20;6.93;;;6.30;76.60;;;;;;5040131;28;20046;-59
2021/04/24 03:30:24;;;;;;;13.55;6.80;;;6.30;77.10;;;;;;5014540;28;20037;-59
2021/04/24 03:32:49;;;;;;;13.50;6.90;;;6.40;76.80;;;;;;5027920;28;20091;-59
2021/04/24 03:35:15;;;;;;;14.82;6.75;;;6.50;76.10;;;;;;5023173;28;20406;-55
2021/04/24 03:37:41;;;;;;;15.40;6.80;;;6.60;75.50;;;;;;5032047;28;20033;-59
2021/04/24 03:40:07;;;;;;;16.52;7.55;;;6.60;75.00;;;;;;5013523;28;20032;-60
2021/04/24 03:42:33;;;;;;;16.23;6.70;;;6.70;74.60;;;;;;5033144;28;20037;-59
2021/04/24 03:44:58;;;;;;;13.70;6.38;;;6.70;74.50;;;;;;5013814;28;20493;-59
2021/04/24 03:47:24;;;;;;;12.27;6.93;;;6.60;74.40;;;;;;5029003;28;20128;-58
2021/04/24 03:49:50;;;;;;;15.98;7.28;;;6.60;75.10;;;;;;5017311;28;20495;-57
2021/04/24 03:52:15;;;;;;;12.13;6.03;;;6.60;75.00;;;;;;5020705;28;20038;-57
2021/04/24 03:54:41;;;;;;;12.20;6.65;;;6.60;75.10;;;;;;5017743;28;20137;-57
2021/04/24 03:57:23;;;;;;;13.98;7.22;;;6.60;75.00;;;;;;5021082;28;20037;-59
2021/04/24 04:00:06;;;;;;;12.27;6.85;;;6.40;76.30;;;;;;5020843;28;20079;-59
2021/04/24 04:02:50;;;;;;;11.25;6.22;;;6.50;75.80;;;;;;5026558;28;20044;-59
2021/04/24 04:05:18;;;;;;;14.75;6.88;;;6.50;75.40;;;;;;5014386;28;20122;-59
2021/04/24 04:07:45;;;;;;;18.65;7.32;;;6.40;75.60;;;;;;5016886;28;20038;-58
2021/04/24 04:10:12;;;;;;;12.38;6.10;;;6.30;75.90;;;;;;5012946;28;20021;-58
2021/04/24 04:12:38;;;;;;;14.85;7.03;;;6.10;76.40;;;;;;5016874;28;20034;-59
2021/04/24 04:15:05;;;;;;;13.65;6.57;;;6.10;76.90;;;;;;5014631;28;20045;-59
2021/04/24 04:17:31;;;;;;;12.75;6.88;;;6.10;77.10;;;;;;5017430;28;20033;-58
2021/04/24 04:19:57;;;;;;;14.38;8.02;;;6.10;77.10;;;;;;5024922;28;20026;-56
2021/04/24 04:22:23;;;;;;;12.60;6.53;;;6.10;77.30;;;;;;5033201;28;20045;-59
2021/04/24 04:24:48;;;;;;;15.93;6.63;;;6.10;77.00;;;;;;5029000;28;20105;-57
2021/04/24 04:27:14;;;;;;;11.77;6.45;;;6.20;76.60;;;;;;5031290;28;20051;-58
2021/04/24 04:29:39;;;;;;;14.23;6.72;;;5.90;77.30;;;;;;5025354;28;20033;-60
2021/04/24 04:32:05;;;;;;;18.33;7.07;;;5.50;79.40;;;;;;5022269;28;20112;-58
2021/04/24 04:34:31;;;;;;;10.38;6.80;;;5.30;80.10;;;;;;5031668;28;20034;-59
2021/04/24 04:36:56;;;;;;;14.70;8.02;;;5.40;80.00;;;;;;5015269;28;20048;-57
2021/04/24 04:39:22;;;;;;;11.80;7.47;;;5.40;80.40;;;;;;5023814;28;20445;-57
2021/04/24 04:41:47;;;;;;;13.77;7.45;;;5.60;79.60;;;;;;5026960;28;20063;-57
2021/04/24 04:44:13;;;;;;;15.82;7.53;;;5.90;78.60;;;;;;5013174;28;20029;-59
2021/04/24 04:46:38;;;;;;;16.83;7.45;;;5.90;78.40;;;;;;5012419;28;20083;-59
2021/04/24 04:49:04;;;;;;;16.63;7.45;;;5.90;79.00;;;;;;5013774;28;20030;-60
2021/04/24 04:51:30;;;;;;;13.60;7.70;;;5.90;78.40;;;;;;5013186;28;20038;-57
2021/04/24 04:53:55;;;;;;;15.50;8.15;;;5.80;79.00;;;;;;5029936;28;20046;-59
2021/04/24 04:56:21;;;;;;;17.33;8.10;;;5.90;79.10;;;;;;5025465;28;20048;-57
2021/04/24 04:58:46;;;;;;;16.95;7.78;;;5.60;79.80;;;;;;5016464;28;20104;-58
2021/04/24 05:01:12;;;;;;;13.45;8.23;;;5.50;80.30;;;;;;5032651;28;20037;-59
2021/04/24 05:03:38;;;;;;;18.65;9.05;;;5.50;80.60;;;;;;5031594;28;20401;-59
2021/04/24 05:06:04;;;;;;;19.85;8.80;;;5.40;81.20;;;;;;5015564;28;20504;-59
2021/04/24 05:08:30;;;;;;;16.00;7.80;;;5.40;80.90;;;;;;5026248;28;20117;-60
2021/04/24 05:10:55;;;;;;;19.95;8.30;;;5.40;81.10;;;;;;5014258;28;20173;-60
2021/04/24 05:13:21;;;;;;;12.32;7.55;;;5.30;82.10;;;;;;5020914;28;20030;-59
2021/04/24 05:15:46;;;;;;;23.98;10.25;;;5.30;82.50;;;;;;5013490;28;20069;-59
2021/04/24 05:18:12;;;;;;;14.98;8.88;;;5.30;82.40;;;;;;5020037;28;20080;-61
2021/04/24 05:20:38;;;;;;;17.85;9.43;;;5.30;83.20;;;;;;5012412;28;20034;-58
2021/04/24 05:23:03;;;;;;;19.55;9.63;;;5.40;82.30;;;;;;5025814;28;20400;-57
2021/04/24 05:25:29;;;;;;;16.17;7.95;;;5.50;82.30;;;;;;5021916;28;20041;-59
2021/04/24 05:27:54;;;;;;;16.08;8.15;;;5.70;82.10;;;;;;5019700;28;20049;-58
2021/04/24 05:30:20;;;;;;;16.42;8.90;;;5.70;82.30;;;;;;5025832;28;20069;-59
2021/04/24 05:32:48;;;;;;;18.27;8.52;;;5.90;81.60;;;;;;5026148;28;20049;-59
2021/04/24 05:35:15;;;;;;;19.55;9.13;;;5.90;81.60;;;;;;5013033;28;20065;-57
2021/04/24 05:37:41;;;;;;;19.42;9.75;;;5.90;81.70;;;;;;5012281;28;20076;-59
2021/04/24 05:40:08;;;;;;;17.23;9.75;;;6.00;81.70;;;;;;5016260;28;20109;-58
2021/04/24 05:42:34;;;;;;;19.65;9.40;;;6.00;82.00;;;;;;5019338;28;20033;-61
2021/04/24 05:45:00;;;;;;;20.25;10.30;;;6.10;81.90;;;;;;5019582;28;20456;-59
2021/04/24 05:47:26;;;;;;;21.67;10.40;;;6.30;81.50;;;;;;5023452;28;20033;-57
2021/04/24 05:49:53;;;;;;;21.38;10.27;;;6.20;81.40;;;;;;5034361;28;20022;-62
2021/04/24 05:52:19;;;;;;;15.98;9.88;;;6.40;81.20;;;;;;5030468;28;20052;-60
2021/04/24 05:54:44;;;;;;;20.58;9.82;;;6.50;81.10;;;;;;5031559;28;20065;-60
2021/04/24 05:57:11;;;;;;;21.48;10.50;;;6.50;81.20;;;;;;5010795;28;20046;-58
2021/04/24 05:59:37;;;;;;;19.73;10.40;;;6.40;82.10;;;;;;5035191;28;20026;-59
2021/04/24 06:02:02;;;;;;;34.17;16.05;;;6.40;82.20;;;;;;5023628;28;20032;-59
2021/04/24 06:04:31;;;;;;;20.10;11.77;;;6.50;82.20;;;;;;5039829;28;20056;-59
2021/04/24 06:06:57;;;;;;;21.90;10.85;;;6.50;82.30;;;;;;5022279;28;20029;-60
2021/04/24 06:09:22;;;;;;;17.35;10.70;;;6.50;82.20;;;;;;5041413;28;20419;-55
2021/04/24 06:11:48;;;;;;;20.75;9.95;;;6.60;83.20;;;;;;5015296;28;20108;-60
2021/04/24 06:14:13;;;;;;;20.58;12.48;;;6.70;82.10;;;;;;5030889;28;20041;-60
2021/04/24 06:16:39;;;;;;;20.33;11.68;;;6.60;82.40;;;;;;5030747;28;20026;-61
2021/04/24 06:19:04;;;;;;;20.27;11.68;;;6.60;83.20;;;;;;5027893;28;20025;-57
2021/04/24 06:21:30;;;;;;;28.70;12.43;;;6.50;83.50;;;;;;5023173;28;20030;-58
2021/04/24 06:23:56;;;;;;;23.95;11.73;;;6.50;84.30;;;;;;5024327;28;20157;-57
2021/04/24 06:26:22;;;;;;;18.85;10.90;;;6.50;84.10;;;;;;5032113;28;20037;-60
2021/04/24 06:28:47;;;;;;;28.83;11.55;;;6.70;83.60;;;;;;5024879;28;20038;-59
2021/04/24 06:31:13;;;;;;;20.63;11.27;;;6.80;83.10;;;;;;5046770;28;20495;-59
2021/04/24 06:33:39;;;;;;;23.35;12.57;;;6.70;83.50;;;;;;5016948;28;20026;-57
2021/04/24 06:36:05;;;;;;;22.63;11.93;;;6.70;83.90;;;;;;5032099;28;20034;-59
2021/04/24 06:38:31;;;;;;;18.95;11.70;;;6.70;84.20;;;;;;5031052;28;20022;-59
2021/04/24 06:40:57;;;;;;;19.42;11.55;;;6.70;84.40;;;;;;5034092;28;20077;-59
2021/04/24 06:43:22;;;;;;;19.20;11.30;;;6.80;84.20;;;;;;5014479;28;20061;-60
2021/04/24 06:45:48;;;;;;;22.42;11.50;;;6.80;84.00;;;;;;5033536;28;20045;-59
2021/04/24 06:48:13;;;;;;;22.00;11.70;;;6.90;84.10;;;;;;5014359;28;20432;-60
2021/04/24 06:50:39;;;;;;;24.00;11.55;;;6.90;84.30;;;;;;5032961;28;20037;-60
2021/04/24 06:53:05;;;;;;;19.80;11.57;;;7.00;83.90;;;;;;5014805;28;20106;-60
2021/04/24 06:55:31;;;;;;;23.00;11.93;;;7.00;83.70;;;;;;5029268;28;20116;-60
2021/04/24 06:57:56;;;;;;;17.65;11.55;;;7.10;83.70;;;;;;5024946;28;20022;-59
2021/04/24 07:00:22;;;;;;;19.60;10.52;;;7.10;83.80;;;;;;5032863;28;20091;-60
2021/04/24 07:02:48;;;;;;;19.70;10.73;;;7.10;84.20;;;;;;5015188;28;20065;-59
2021/04/24 07:05:15;;;;;;;22.50;11.80;;;7.20;83.60;;;;;;5032262;28;20492;-59
2021/04/24 07:07:41;;;;;;;18.92;11.70;;;7.10;83.60;;;;;;5012990;28;20049;-58
2021/04/24 07:10:08;;;;;;;18.83;11.07;;;7.10;84.10;;;;;;5018881;28;20497;-63
2021/04/24 07:12:35;;;;;;;22.58;11.48;;;7.10;84.10;;;;;;5014444;28;20104;-59
2021/04/24 07:15:00;;;;;;;26.05;15.02;;;7.10;84.60;;;;;;5029219;28;20037;-58
2021/04/24 07:17:26;;;;;;;19.58;10.77;;;7.30;83.20;;;;;;5019676;28;20025;-59
2021/04/24 07:19:52;;;;;;;21.52;10.40;;;7.20;83.50;;;;;;5027054;28;20029;-56
2021/04/24 07:22:18;;;;;;;19.13;11.25;;;7.10;84.80;;;;;;5021512;28;20426;-57
2021/04/24 07:24:46;;;;;;;20.25;10.85;;;7.10;84.50;;;;;;5031642;28;20046;-61
2021/04/24 07:27:15;;;;;;;13.48;10.32;;;7.20;84.00;;;;;;5040314;28;20045;-60
2021/04/24 07:29:42;;;;;;;19.65;10.00;;;7.20;83.40;;;;;;5028984;28;20117;-59
2021/04/24 07:32:07;;;;;;;16.42;9.75;;;7.20;83.40;;;;;;5026886;28;20029;-59
2021/04/24 07:34:34;;;;;;;18.50;10.50;;;7.40;82.90;;;;;;5019918;28;20045;-59
2021/04/24 07:37:00;;;;;;;21.63;10.52;;;7.10;84.40;;;;;;5017834;28;20057;-60
2021/04/24 07:39:26;;;;;;;15.68;9.98;;;7.40;82.60;;;;;;5021697;28;20034;-59
2021/04/24 07:41:52;;;;;;;14.85;9.88;;;7.00;83.80;;;;;;5032071;28;20029;-59
2021/04/24 07:44:17;;;;;;;15.35;9.80;;;7.20;82.10;;;;;;5035386;28;20080;-60
2021/04/24 07:46:43;;;;;;;15.48;9.05;;;7.40;81.70;;;;;;5016237;28;20045;-58
2021/04/24 07:49:09;;;;;;;16.58;9.15;;;7.50;81.60;;;;;;5039520;28;20064;-59
2021/04/24 07:51:35;;;;;;;14.55;9.30;;;7.40;82.30;;;;;;5027179;28;20168;-60
2021/04/24 07:54:00;;;;;;;19.25;10.55;;;7.70;80.40;;;;;;5041118;28;20490;-59
2021/04/24 07:56:26;;;;;;;16.52;10.18;;;7.80;80.10;;;;;;5014090;28;20045;-58
2021/04/24 07:58:51;;;;;;;16.05;10.45;;;8.10;79.00;;;;;;5017459;28;20385;-59
2021/04/24 08:01:17;;;;;;;23.65;10.88;;;8.20;78.90;;;;;;5025774;28;20029;-59
2021/04/24 08:03:44;;;;;;;16.23;9.90;;;8.10;77.30;;;;;;5032235;28;20517;-59
2021/04/24 08:06:10;;;;;;;17.05;8.85;;;7.90;77.00;;;;;;5035474;28;20099;-61
2021/04/24 08:08:36;;;;;;;13.20;9.88;;;8.00;76.80;;;;;;5033230;28;20432;-62
2021/04/24 08:11:01;;;;;;;18.33;9.40;;;8.10;76.70;;;;;;5032511;28;20091;-59
2021/04/24 08:13:27;;;;;;;14.52;9.45;;;8.10;76.50;;;;;;5032712;28;20037;-58
2021/04/24 08:15:52;;;;;;;14.02;8.48;;;8.30;74.70;;;;;;5031874;28;20068;-58
2021/04/24 08:18:18;;;;;;;11.63;7.57;;;8.20;73.90;;;;;;5031985;28;20083;-59
2021/04/24 08:20:44;;;;;;;13.27;8.27;;;8.10;74.10;;;;;;5031846;28;20105;-60
2021/04/24 08:23:09;;;;;;;19.35;9.02;;;8.10;75.00;;;;;;5033383;28;20493;-58
2021/04/24 08:25:35;;;;;;;14.18;8.10;;;7.90;76.00;;;;;;5031988;28;20656;-62
2021/04/24 08:28:00;;;;;;;14.38;8.35;;;8.20;75.70;;;;;;5028825;28;20045;-60
2021/04/24 08:30:27;;;;;;;12.73;8.35;;;8.40;75.60;;;;;;5031450;28;20049;-58
2021/04/24 08:32:52;;;;;;;12.32;6.68;;;8.50;73.10;;;;;;5032800;28;20024;-57
2021/04/24 08:35:18;;;;;;;14.75;8.15;;;8.70;72.80;;;;;;5022013;28;20405;-60
2021/04/24 08:37:45;;;;;;;10.57;7.75;;;8.80;70.20;;;;;;5026610;28;20416;-57
2021/04/24 08:40:12;;;;;;;11.68;7.45;;;8.70;70.90;;;;;;5021180;28;20061;-61
2021/04/24 08:42:39;;;;;;;21.05;7.82;;;8.50;72.20;;;;;;5034743;28;20044;-57
2021/04/24 08:45:14;;;;;;;11.85;7.22;;;8.80;71.80;;;;;;5020890;28;20037;-60
2021/04/24 08:47:49;;;;;;;13.43;7.45;;;9.10;71.10;;;;;;5039088;28;20386;-58
2021/04/24 08:50:27;;;;;;;11.32;7.38;;;9.10;71.10;;;;;;5011678;28;20025;-59
2021/04/24 08:52:53;;;;;;;11.60;6.85;;;9.10;68.40;;;;;;5046597;28;20037;-60
2021/04/24 08:55:23;;;;;;;17.70;9.88;;;8.60;70.70;;;;;;5018519;28;20041;-60
2021/04/24 08:57:49;;;;;;;12.40;7.72;;;8.40;71.20;;;;;;5009114;28;20139;-58
2021/04/24 09:00:17;;;;;;;12.20;7.63;;;8.70;71.10;;;;;;5029547;28;20069;-59
2021/04/24 09:02:44;;;;;;;12.60;7.30;;;9.30;70.90;;;;;;5009670;28;20037;-61
2021/04/24 09:05:12;;;;;;;12.02;8.10;;;9.60;69.10;;;;;;5022246;28;20323;-60
2021/04/24 09:07:38;;;;;;;11.07;7.88;;;9.70;69.20;;;;;;5012004;28;20037;-59
2021/04/24 09:10:04;;;;;;;13.32;7.50;;;9.90;69.10;;;;;;5018531;28;20034;-60
2021/04/24 09:12:38;;;;;;;11.60;7.50;;;9.80;68.40;;;;;;5011994;28;20042;-59
2021/04/24 09:15:10;;;;;;;14.02;8.80;;;9.60;67.90;;;;;;5022673;28;20385;-58
2021/04/24 09:18:02;;;;;;;13.85;7.63;;;9.50;68.00;;;;;;5027592;28;20509;-62
2021/04/24 09:20:30;;;;;;;11.43;6.68;;;9.80;69.10;;;;;;5032285;28;20061;-57
2021/04/24 09:23:07;;;;;;;11.30;6.75;;;9.80;66.90;;;;;;5043598;28;20032;-61
2021/04/24 09:25:48;;;;;;;12.13;6.90;;;10.00;67.30;;;;;;5023968;28;20076;-59
2021/04/24 09:28:41;;;;;;;9.35;6.85;;;9.60;68.00;;;;;;5032673;28;20030;-58
2021/04/24 09:31:21;;;;;;;10.00;6.50;;;9.50;67.30;;;;;;5033078;28;20060;-59
2021/04/24 09:33:49;;;;;;;11.15;6.43;;;9.50;68.00;;;;;;5035399;28;20033;-58
2021/04/24 09:36:17;;;;;;;9.45;6.55;;;9.70;67.90;;;;;;5034863;28;20091;-60
2021/04/24 09:38:48;;;;;;;10.90;6.72;;;9.80;67.20;;;;;;5038887;28;20052;-60
2021/04/24 09:41:23;;;;;;;10.00;6.75;;;9.80;65.70;;;;;;5020765;28;20048;-59
2021/04/24 09:43:57;;;;;;;10.15;6.47;;;9.90;65.70;;;;;;5024840;28;20030;-59
2021/04/24 09:46:24;;;;;;;10.60;6.57;;;9.80;65.90;;;;;;5017273;28;20537;-61
2021/04/24 09:48:49;;;;;;;10.40;6.07;;;10.00;66.30;;;;;;5035445;28;20045;-59
2021/04/24 09:51:19;;;;;;;12.43;6.65;;;10.20;65.90;;;;;;5035744;28;20074;-61
2021/04/24 09:53:58;;;;;;;9.85;7.00;;;10.20;66.00;;;;;;5036301;28;20108;-61
2021/04/24 09:56:27;;;;;;;11.75;7.63;;;10.10;65.60;;;;;;5036574;28;20141;-61
2021/04/24 09:59:01;;;;;;;9.90;6.85;;;9.90;65.50;;;;;;5031909;28;20036;-60
2021/04/24 10:01:29;;;;;;;;;;;10.20;65.10;;;;;;5034115;28;20030;-60
2021/04/24 10:03:55;;;;;;;11.23;6.40;;;10.10;64.60;;;;;;5033798;28;20384;-59
2021/04/24 10:06:23;;;;;;;9.82;6.38;;;10.10;64.30;;;;;;5036821;28;20097;-61
2021/04/24 10:08:49;;;;;;;13.60;7.72;;;10.00;65.00;;;;;;5035682;28;20033;-60
2021/04/24 10:11:28;;;;;;;10.48;6.93;;;10.00;64.40;;;;;;5045443;28;20423;-60
2021/04/24 10:13:54;;;;;;;11.10;6.82;;;10.20;63.90;;;;;;5028813;28;20064;-60
2021/04/24 10:16:35;;;;;;;12.68;6.63;;;10.40;63.50;;;;;;5035925;28;20605;-60
2021/04/24 10:19:04;;;;;;;12.68;6.88;;;10.70;62.30;;;;;;5027468;28;20428;-60
2021/04/24 10:21:31;;;;;;;11.05;6.88;;;10.70;61.80;;;;;;5020649;28;20026;-61
2021/04/24 10:23:58;;;;;;;10.43;5.88;;;10.70;61.90;;;;;;5031720;28;20037;-59
2021/04/24 10:26:28;;;;;;;10.70;7.00;;;10.90;62.10;;;;;;5029655;28;20657;-59
2021/04/24 10:28:55;;;;;;;8.70;6.28;;;10.90;61.80;;;;;;5012833;28;20030;-61
2021/04/24 10:31:21;;;;;;;8.95;6.32;;;10.80;61.70;;;;;;5036835;28;20170;-61
2021/04/24 10:33:48;;;;;;;10.75;6.60;;;10.80;62.30;;;;;;5013740;28;20469;-61
2021/04/24 10:36:18;;;;;;;8.30;5.97;;;10.80;62.10;;;;;;5036037;28;20036;-59
2021/04/24 10:38:46;;;;;;;9.30;6.10;;;10.60;62.50;;;;;;5030688;28;20048;-57
2021/04/24 10:41:13;;;;;;;10.00;6.43;;;10.60;62.50;;;;;;5034679;28;20048;-61
2021/04/24 10:43:40;;;;;;;9.93;6.32;;;10.70;62.60;;;;;;5038495;28;20032;-61
2021/04/24 10:46:25;;;;;;;12.43;6.38;;;10.80;62.90;;;;;;5032100;28;20533;-60
2021/04/24 10:49:17;;;;;;;8.77;5.88;;;10.90;62.70;;;;;;5033431;28;20095;-60
2021/04/24 10:52:00;;;;;;;9.45;6.60;;;11.00;62.90;;;;;;5041091;28;20364;-59
2021/04/24 10:54:32;;;;;;;8.88;5.38;;;11.20;62.70;;;;;;5031406;28;20063;-59
2021/04/24 10:56:58;;;;;;;10.63;6.28;;;10.80;63.40;;;;;;5034164;28;20086;-60
2021/04/24 10:59:30;;;;;;;7.78;6.03;;;10.60;62.20;;;;;;5034046;28;20500;-60
2021/04/24 11:02:12;;;;;;;10.57;5.68;;;10.60;63.30;;;;;;5032944;28;20021;-59
2021/04/24 11:04:45;;;;;;;8.52;5.57;;;10.70;63.50;;;;;;5031993;28;20021;-59
2021/04/24 11:07:19;;;;;;;8.85;5.80;;;10.60;63.60;;;;;;5036235;28;20025;-59
2021/04/24 11:10:05;;;;;;;7.83;5.30;;;10.40;63.30;;;;;;5035094;28;20087;-59
2021/04/24 11:12:32;;;;;;;8.60;5.88;;;10.70;62.20;;;;;;5028727;28;20038;-58
2021/04/24 11:15:01;;;;;;;10.07;6.28;;;11.10;62.30;;;;;;5025265;28;20072;-56
2021/04/24 11:17:32;;;;;;;9.90;5.90;;;11.40;61.40;;;;;;5024850;28;20109;-59
2021/04/24 11:19:58;;;;;;;9.52;5.93;;;11.10;61.40;;;;;;5031162;28;20046;-58
2021/04/24 11:22:40;;;;;;;9.73;5.88;;;10.80;61.20;;;;;;5019038;28;20061;-58
2021/04/24 11:25:30;;;;;;;9.18;5.25;;;10.70;61.70;;;;;;5012743;28;556037;-58
2021/04/24 11:28:10;;;;;;;9.32;6.13;;;10.60;62.10;;;;;;5023716;28;20033;-59
2021/04/24 11:30:58;;;;;;;7.82;5.72;;;10.50;61.70;;;;;;5033465;28;20477;-57
2021/04/24 11:33:42;;;;;;;9.73;5.32;;;10.60;62.10;;;;;;5033247;28;20555;-60
2021/04/24 11:41:37;;;;;;;9.45;6.05;;;10.60;63.30;;;;;;5032205;28;20036;-58
2021/04/24 11:44:18;;;;;;;9.48;5.97;;;11.30;60.00;;;;;;5033604;28;20049;-65
2021/04/24 11:46:46;;;;;;;13.35;6.38;;;10.90;61.10;;;;;;5030209;28;20516;-57
2021/04/24 11:49:14;;;;;;;10.05;5.97;;;11.30;60.70;;;;;;5032051;28;20615;-58
2021/04/24 11:51:48;;;;;;;9.18;6.35;;;11.10;61.60;;;;;;5032021;28;20034;-59
2021/04/24 11:54:31;;;;;;;10.15;6.50;;;11.00;62.30;;;;;;5034375;28;20032;-61
2021/04/24 11:57:00;;;;;;;7.43;5.82;;;10.90;61.80;;;;;;5026738;28;20832;-61
2021/04/24 11:59:27;;;;;;;7.88;5.88;;;10.80;62.20;;;;;;5015456;28;20029;-58
2021/04/24 12:01:59;;;;;;;8.73;5.55;;;10.70;62.30;;;;;;5014695;28;20030;-58
2021/04/24 12:04:36;;;;;;;9.15;5.70;;;10.70;61.80;;;;;;5014279;28;20029;-60
2021/04/24 12:07:09;;;;;;;8.52;5.50;;;10.90;61.40;;;;;;5020475;28;20022;-59
2021/04/24 12:09:52;;;;;;;11.75;6.18;;;10.70;60.80;;;;;;5015369;28;20041;-58
2021/04/24 12:12:31;;;;;;;9.40;6.65;;;11.00;60.50;;;;;;5020710;28;20026;-61
2021/04/24 12:15:08;;;;;;;6.72;5.10;;;11.20;59.40;;;;;;5025122;28;20024;-59
2021/04/24 12:17:35;;;;;;;9.75;6.05;;;11.30;59.70;;;;;;5018995;28;20378;-59
2021/04/24 12:20:01;;;;;;;7.15;5.28;;;11.60;58.70;;;;;;5017565;28;20114;-60
2021/04/24 12:22:26;;;;;;;8.82;5.85;;;11.70;60.00;;;;;;5034192;28;20029;-59
2021/04/24 12:25:00;;;;;;;10.05;5.93;;;11.30;61.30;;;;;;5031552;28;20112;-59
2021/04/24 12:27:34;;;;;;;12.30;6.07;;;11.00;62.10;;;;;;5015137;28;20069;-59
2021/04/24 12:30:02;;;;;;;8.90;6.00;;;10.80;62.60;;;;;;5017628;28;20104;-59
2021/04/24 12:32:34;;;;;;;7.32;5.30;;;10.80;62.30;;;;;;5032129;28;20047;-59
2021/04/24 12:35:07;;;;;;;8.95;5.30;;;10.90;63.50;;;;;;5018089;28;20026;-57
2021/04/24 12:37:33;;;;;;;9.35;5.50;;;10.90;63.20;;;;;;5023068;28;20623;-59
2021/04/24 12:40:22;;;;;;;9.25;5.63;;;11.00;62.50;;;;;;5015866;28;20093;-59
2021/04/24 12:42:49;;;;;;;8.30;5.38;;;10.80;62.60;;;;;;5032676;28;20521;-62
2021/04/24 12:45:21;;;;;;;9.00;4.95;;;10.90;61.80;;;;;;5018118;28;20029;-60
2021/04/24 12:47:48;;;;;;;7.32;4.95;;;11.10;61.20;;;;;;5025767;28;20037;-60
2021/04/24 12:50:41;;;;;;;10.45;5.65;;;11.40;60.60;;;;;;5020862;28;20485;-60
2021/04/24 12:53:09;;;;;;;8.43;5.22;;;11.40;59.70;;;;;;5031293;28;20026;-60
2021/04/24 12:55:43;;;;;;;8.85;5.03;;;11.40;59.70;;;;;;5017272;28;20116;-59
2021/04/24 12:58:12;;;;;;;11.07;6.10;;;11.70;59.40;;;;;;5014642;28;20100;-60